Time;durP1;ratioP1;P1;durP2;ratioP2;P2;SDS_P1;SDS_P2;PMS_P1;PMS_P2;Temp;Humidity;BMP_temperature;BMP_pressure;BME280_temperature;BME280_humidity;BME280_pressure;Samples;Min_cycle;Max_cycle;Signal;HPM_P1;HPM_P2
2022/01/11 00:01:11;;;;;;;144.63;52.83;;;0.30;99.90;;;;;;4888542;29;20064;-83
2022/01/11 00:04:07;;;;;;;142.85;53.22;;;0.30;99.90;;;;;;4866579;29;20053;-84
2022/01/11 00:06:59;;;;;;;137.60;51.38;;;0.30;99.90;;;;;;4868685;29;20132;-84
2022/01/11 00:09:49;;;;;;;133.93;48.97;;;0.30;99.90;;;;;;4861013;29;20147;-83
2022/01/11 00:12:39;;;;;;;135.18;49.20;;;0.30;99.90;;;;;;4875737;29;20158;-82
2022/01/11 00:15:28;;;;;;;123.47;46.47;;;0.30;99.90;;;;;;4878755;29;20136;-83
2022/01/11 00:18:17;;;;;;;120.97;45.45;;;0.30;99.90;;;;;;4878193;29;20463;-82
2022/01/11 00:21:07;;;;;;;117.72;44.20;;;0.30;99.90;;;;;;4874951;29;20053;-83
2022/01/11 00:27:10;;;;;;;122.82;44.95;;;0.30;99.90;;;;;;4878584;29;20443;-84
2022/01/11 00:30:07;;;;;;;108.90;41.70;;;0.30;99.90;;;;;;4869337;29;20438;-84
2022/01/11 00:32:56;;;;;;;125.13;44.88;;;0.30;99.90;;;;;;4876629;29;20052;-82
2022/01/11 00:35:57;;;;;;;116.75;44.25;;;0.30;99.90;;;;;;4881071;29;20154;-83
2022/01/11 00:38:46;;;;;;;118.68;43.00;;;0.30;99.90;;;;;;4864924;29;20045;-82
2022/01/11 00:41:37;;;;;;;119.35;43.13;;;0.30;99.90;;;;;;4882155;29;20043;-83
2022/01/11 00:44:27;;;;;;;118.10;43.65;;;0.30;99.90;;;;;;4874200;29;20056;-84
2022/01/11 00:47:15;;;;;;;121.95;42.22;;;0.30;99.90;;;;;;4861960;29;20200;-83
2022/01/11 00:50:05;;;;;;;126.75;44.30;;;0.30;99.90;;;;;;4845448;29;20090;-83
2022/01/11 00:52:52;;;;;;;115.95;42.75;;;0.30;99.90;;;;;;4883166;29;20135;-84
2022/01/11 00:55:42;;;;;;;119.15;43.33;;;0.30;99.90;;;;;;4870084;29;20048;-83
2022/01/11 00:58:29;;;;;;;122.10;41.50;;;0.30;99.90;;;;;;4880811;29;20053;-83
2022/01/11 01:01:19;;;;;;;108.15;41.10;;;0.30;99.90;;;;;;4870483;29;20659;-83
2022/01/11 01:04:08;;;;;;;113.63;40.58;;;0.20;99.90;;;;;;4876465;29;20079;-82
2022/01/11 01:06:55;;;;;;;122.00;40.90;;;0.20;99.90;;;;;;4888126;29;20060;-83
2022/01/11 01:09:58;;;;;;;130.90;46.20;;;0.10;99.90;;;;;;4886924;29;20135;-84
2022/01/11 01:12:46;;;;;;;154.52;52.53;;;0.10;99.90;;;;;;4883331;29;20047;-82
2022/01/11 01:15:35;;;;;;;139.40;47.95;;;0.00;99.90;;;;;;4877664;29;20169;-82
2022/01/11 01:18:26;;;;;;;132.98;47.38;;;0.00;99.90;;;;;;4868983;29;20059;-84
2022/01/11 01:21:16;;;;;;;139.35;48.10;;;-0.10;99.90;;;;;;4877574;29;20048;-83
2022/01/11 01:24:10;;;;;;;121.03;48.17;;;-0.10;99.90;;;;;;4878026;29;20045;-83
2022/01/11 01:26:59;;;;;;;147.82;50.33;;;-0.20;99.90;;;;;;4883583;29;20057;-84
2022/01/11 01:29:46;;;;;;;127.13;45.22;;;-0.20;99.90;;;;;;4880318;29;20070;-83
2022/01/11 01:32:34;;;;;;;128.85;46.90;;;-0.20;99.90;;;;;;4879382;29;20144;-84
2022/01/11 01:35:31;;;;;;;141.32;49.42;;;-0.20;99.90;;;;;;4867047;29;20140;-84
2022/01/11 01:38:23;;;;;;;145.77;49.38;;;-0.20;99.90;;;;;;4880684;29;20092;-82
2022/01/11 01:41:16;;;;;;;129.55;44.97;;;-0.20;99.90;;;;;;4854181;29;20049;-83
2022/01/11 01:44:04;;;;;;;137.00;48.45;;;-0.30;99.90;;;;;;4882876;29;20117;-84
2022/01/11 01:46:51;;;;;;;146.68;48.42;;;-0.30;99.90;;;;;;4863053;29;20059;-83
2022/01/11 01:49:41;;;;;;;136.45;47.83;;;-0.30;99.90;;;;;;4866286;29;20124;-81
2022/01/11 01:52:29;;;;;;;133.88;47.25;;;-0.20;99.90;;;;;;4864420;29;20044;-82
2022/01/11 01:55:16;;;;;;;137.80;46.05;;;-0.20;99.90;;;;;;4883237;29;20052;-81
2022/01/11 01:58:03;;;;;;;141.85;47.28;;;-0.10;99.90;;;;;;4864227;29;20056;-82
2022/01/11 02:00:55;;;;;;;170.50;50.80;;;0.00;99.90;;;;;;4880758;29;20483;-83
2022/01/11 02:03:44;;;;;;;171.65;53.08;;;0.00;99.90;;;;;;4864268;29;20155;-80
2022/01/11 02:06:32;;;;;;;167.73;53.55;;;0.10;99.90;;;;;;4880226;29;20224;-84
2022/01/11 02:09:20;;;;;;;186.15;57.72;;;0.20;99.90;;;;;;4862174;29;20053;-82
2022/01/11 02:12:10;;;;;;;198.45;56.85;;;0.30;99.90;;;;;;4869671;29;20056;-83
2022/01/11 02:14:57;;;;;;;183.35;55.80;;;0.30;99.90;;;;;;4878831;29;20128;-83
2022/01/11 02:17:45;;;;;;;214.48;59.35;;;0.40;99.90;;;;;;4863726;29;20045;-82
2022/01/11 02:20:32;;;;;;;198.13;57.50;;;0.30;99.90;;;;;;4843540;29;20141;-82
2022/01/11 02:23:20;;;;;;;217.07;61.72;;;0.40;99.90;;;;;;4848713;29;20102;-84
2022/01/11 02:26:07;;;;;;;236.07;62.50;;;0.50;99.90;;;;;;4847329;29;20440;-82
2022/01/11 02:29:00;;;;;;;219.13;61.08;;;0.50;99.90;;;;;;4846427;29;20077;-83
2022/01/11 02:31:49;;;;;;;231.27;64.18;;;0.50;99.90;;;;;;4845124;29;20050;-82
2022/01/11 02:34:37;;;;;;;242.98;62.38;;;0.50;99.90;;;;;;4854759;29;20049;-82
2022/01/11 02:37:24;;;;;;;263.77;65.45;;;0.50;99.90;;;;;;4864258;29;20052;-81
2022/01/11 02:40:17;;;;;;;226.68;58.92;;;0.50;99.90;;;;;;4842772;29;20049;-82
2022/01/11 02:43:05;;;;;;;;;;;0.50;99.90;;;;;;4862626;29;20113;-81
2022/01/11 02:45:53;;;;;;;220.77;61.78;;;0.50;99.90;;;;;;4860363;29;19928;-82
2022/01/11 02:48:41;;;;;;;221.35;59.05;;;0.40;99.90;;;;;;4858806;29;20053;-82
2022/01/11 02:51:29;;;;;;;214.35;59.55;;;0.40;99.90;;;;;;4865768;29;20130;-82
2022/01/11 02:54:17;;;;;;;233.68;60.80;;;0.40;99.90;;;;;;4838019;29;20148;-86
2022/01/11 02:57:04;;;;;;;201.25;58.35;;;0.30;99.90;;;;;;4865563;29;20488;-81
2022/01/11 02:59:52;;;;;;;212.80;60.67;;;0.30;99.90;;;;;;4847462;29;20060;-81
2022/01/11 03:02:44;;;;;;;217.20;59.05;;;0.20;99.90;;;;;;4837032;29;20496;-82
2022/01/11 03:05:32;;;;;;;;;;;0.20;99.90;;;;;;4860353;29;20475;-81
2022/01/11 03:08:21;;;;;;;173.60;50.50;;;0.10;99.90;;;;;;4860747;29;19936;-84
2022/01/11 03:11:15;;;;;;;202.98;56.30;;;0.10;99.90;;;;;;4856405;29;20444;-83
2022/01/11 03:14:03;;;;;;;182.13;53.90;;;0.00;99.90;;;;;;4859496;29;20160;-83
2022/01/11 03:16:51;;;;;;;192.30;56.25;;;-0.10;99.90;;;;;;4872506;29;20128;-84
2022/01/11 03:19:39;;;;;;;191.45;53.28;;;-0.10;99.90;;;;;;4865232;29;20143;-81
2022/01/11 03:22:26;;;;;;;197.40;51.70;;;-0.10;99.90;;;;;;4870912;29;20206;-83
2022/01/11 03:25:16;;;;;;;197.40;53.08;;;-0.10;99.90;;;;;;4878362;29;20052;-83
2022/01/11 03:28:04;;;;;;;172.25;50.97;;;-0.20;99.90;;;;;;4866321;29;20131;-83
2022/01/11 03:30:55;;;;;;;187.07;52.55;;;-0.10;99.90;;;;;;4873129;29;20091;-82
2022/01/11 03:33:43;;;;;;;186.88;52.33;;;-0.20;99.90;;;;;;4881422;29;20149;-83
2022/01/11 03:36:33;;;;;;;175.20;52.20;;;-0.20;99.90;;;;;;4868142;29;20802;-82
2022/01/11 03:39:20;;;;;;;187.73;50.85;;;-0.30;99.90;;;;;;4856886;29;20485;-83
2022/01/11 03:42:07;;;;;;;198.82;52.53;;;-0.30;99.90;;;;;;4867481;29;20381;-83
2022/01/11 03:44:55;;;;;;;189.90;51.55;;;-0.30;99.90;;;;;;4867425;29;20057;-82
2022/01/11 03:47:43;;;;;;;165.52;50.25;;;-0.30;99.90;;;;;;4855722;29;20499;-83
2022/01/11 03:50:31;;;;;;;176.52;51.00;;;-0.20;99.90;;;;;;4864859;29;20052;-83
2022/01/11 03:53:27;;;;;;;187.52;52.80;;;-0.20;99.90;;;;;;4875528;29;20060;-81
2022/01/11 03:56:26;;;;;;;199.30;50.03;;;-0.20;99.90;;;;;;4878923;29;20473;-81
2022/01/11 03:59:14;;;;;;;205.07;52.00;;;-0.10;99.90;;;;;;4875844;29;20110;-81
2022/01/11 04:02:01;;;;;;;192.23;52.53;;;-0.10;99.90;;;;;;4876655;29;20045;-84
2022/01/11 04:04:52;;;;;;;192.13;50.67;;;-0.10;99.90;;;;;;4863190;29;20407;-82
2022/01/11 04:07:45;;;;;;;175.40;51.40;;;-0.10;99.90;;;;;;4865486;29;20057;-81
2022/01/11 04:10:32;;;;;;;193.48;51.60;;;-0.10;99.90;;;;;;4864574;29;20165;-82
2022/01/11 04:13:20;;;;;;;216.40;55.58;;;-0.10;99.90;;;;;;4878687;29;20133;-83
2022/01/11 04:16:10;;;;;;;219.52;57.10;;;-0.10;99.90;;;;;;4876991;29;20053;-84
2022/01/11 04:18:58;;;;;;;233.55;56.72;;;0.00;99.90;;;;;;4879667;29;20512;-84
2022/01/11 04:21:46;;;;;;;234.45;57.25;;;0.00;99.90;;;;;;4877231;29;20187;-82
2022/01/11 04:24:34;;;;;;;246.73;57.72;;;0.00;99.90;;;;;;4869068;29;20059;-83
2022/01/11 04:27:21;;;;;;;244.57;60.22;;;0.00;99.90;;;;;;4863697;29;20049;-84
2022/01/11 04:30:09;;;;;;;240.73;56.35;;;0.10;99.90;;;;;;4870000;29;20041;-83
2022/01/11 04:32:56;;;;;;;232.60;57.80;;;0.10;99.90;;;;;;4867828;29;20126;-82
2022/01/11 04:35:48;;;;;;;193.27;53.40;;;0.10;99.90;;;;;;4880815;29;20145;-83
2022/01/11 04:38:36;;;;;;;227.25;58.20;;;0.10;99.90;;;;;;4868613;29;20136;-83
2022/01/11 04:41:23;;;;;;;208.13;58.63;;;0.20;99.90;;;;;;4873512;29;20122;-83
2022/01/11 04:44:11;;;;;;;252.57;59.88;;;0.20;99.90;;;;;;4878499;29;20053;-83
2022/01/11 04:46:58;;;;;;;208.27;56.10;;;0.20;99.90;;;;;;4850493;29;20193;-82
2022/01/11 04:49:45;;;;;;;223.05;59.17;;;0.20;99.90;;;;;;4874686;29;20045;-82
2022/01/11 04:52:33;;;;;;;217.40;55.17;;;0.20;99.90;;;;;;4880253;29;20045;-83
2022/01/11 04:55:21;;;;;;;194.55;52.78;;;0.20;99.90;;;;;;4839782;29;20111;-83
2022/01/11 04:58:08;;;;;;;205.50;54.90;;;0.20;99.90;;;;;;4876020;29;20064;-84
2022/01/11 05:00:56;;;;;;;210.82;54.38;;;0.30;99.90;;;;;;4867576;29;20081;-82
2022/01/11 05:03:44;;;;;;;218.38;54.58;;;0.30;99.90;;;;;;4880220;29;20056;-82
2022/01/11 05:06:32;;;;;;;243.68;56.50;;;0.30;99.90;;;;;;4880486;29;20104;-82
2022/01/11 05:09:20;;;;;;;206.30;53.45;;;0.30;99.90;;;;;;4879805;29;20060;-84
2022/01/11 05:12:08;;;;;;;204.40;53.25;;;0.40;99.90;;;;;;4871004;29;20085;-80
2022/01/11 05:14:55;;;;;;;230.52;58.33;;;0.40;99.90;;;;;;4870091;29;20041;-83
2022/01/11 05:17:43;;;;;;;227.52;54.97;;;0.40;99.90;;;;;;4877177;29;20057;-81
2022/01/11 05:20:30;;;;;;;206.43;53.47;;;0.40;99.90;;;;;;4859573;29;20431;-82
2022/01/11 05:23:22;;;;;;;195.55;51.47;;;0.40;99.90;;;;;;4869778;29;20096;-82
2022/01/11 05:26:09;;;;;;;207.30;51.13;;;0.40;99.90;;;;;;4861706;29;20060;-82
2022/01/11 05:28:58;;;;;;;175.48;50.60;;;0.40;99.90;;;;;;4867007;29;20045;-83
2022/01/11 05:31:48;;;;;;;184.57;51.00;;;0.40;99.90;;;;;;4864913;29;20144;-83
2022/01/11 05:34:35;;;;;;;169.43;48.00;;;0.40;99.90;;;;;;4866891;29;20129;-81
2022/01/11 05:37:23;;;;;;;193.63;50.30;;;0.40;99.90;;;;;;4860694;29;20113;-82
2022/01/11 05:56:50;;;;;;;185.38;48.20;;;0.40;99.90;;;;;;4785673;29;20185;-82
2022/01/11 06:08:20;;;;;;;180.13;46.63;;;0.40;99.90;;;;;;4797307;29;20130;-82
2022/01/11 06:11:09;;;;;;;184.93;50.95;;;0.40;99.90;;;;;;4793601;29;20055;-83
2022/01/11 06:13:58;;;;;;;150.77;45.70;;;0.40;99.90;;;;;;4856908;29;20045;-81
2022/01/11 06:16:46;;;;;;;191.40;51.35;;;0.40;99.90;;;;;;4866802;29;20056;-82
2022/01/11 06:19:35;;;;;;;176.55;49.72;;;0.40;99.90;;;;;;4880724;29;20049;-81
2022/01/11 06:22:24;;;;;;;184.35;50.17;;;0.40;99.90;;;;;;4859290;29;20140;-82
2022/01/11 06:25:11;;;;;;;167.25;48.75;;;0.40;99.90;;;;;;4878451;29;20122;-80
2022/01/11 06:27:59;;;;;;;188.23;54.45;;;0.40;99.90;;;;;;4883297;29;20048;-81
2022/01/11 06:30:47;;;;;;;195.15;52.58;;;0.40;99.90;;;;;;4870329;29;20084;-81
2022/01/11 06:33:35;;;;;;;169.05;50.45;;;0.40;99.90;;;;;;4854385;29;20128;-81
2022/01/11 06:36:28;;;;;;;192.25;54.00;;;0.40;99.90;;;;;;4877741;29;20056;-80
2022/01/11 06:39:15;;;;;;;186.73;55.35;;;0.40;99.90;;;;;;4863309;29;20097;-80
2022/01/11 06:42:04;;;;;;;191.70;57.15;;;0.50;99.90;;;;;;4858972;29;20041;-80
2022/01/11 06:44:53;;;;;;;209.38;58.95;;;0.50;99.90;;;;;;4872004;29;20041;-79
2022/01/11 06:47:41;;;;;;;214.52;62.10;;;0.50;99.90;;;;;;4875678;29;20053;-78
2022/01/11 07:08:04;;;;;;;207.70;56.38;;;0.50;99.90;;;;;;4856168;29;20387;-79
2022/01/11 07:11:14;;;;;;;199.30;60.35;;;0.50;99.90;;;;;;4804590;29;20050;-82
2022/01/11 07:23:20;;;;;;;207.00;61.00;;;0.50;99.90;;;;;;4802415;29;20055;-81
2022/01/11 08:26:02;;;;;;;199.30;62.78;;;1.00;99.90;;;;;;4895051;29;20111;-81
2022/01/11 08:29:27;;;;;;;199.30;63.85;;;1.10;99.90;;;;;;4828249;29;20121;-80
2022/01/11 08:56:55;;;;;;;180.73;60.30;;;1.60;99.90;;;;;;5093348;23;20068;-81
2022/01/11 08:59:45;;;;;;;198.25;74.75;;;1.60;99.90;;;;;;4879500;29;20184;-81
2022/01/11 09:02:35;;;;;;;164.23;61.40;;;1.60;99.90;;;;;;4886911;29;20044;-80
2022/01/11 09:05:23;;;;;;;156.85;59.45;;;1.60;99.90;;;;;;4878838;29;20063;-80
2022/01/11 09:08:13;;;;;;;150.10;56.22;;;1.70;99.90;;;;;;4893456;29;20140;-81
2022/01/11 09:11:09;;;;;;;147.80;54.83;;;1.70;99.90;;;;;;4895671;29;20419;-81
2022/01/11 09:13:57;;;;;;;144.93;55.20;;;1.70;99.90;;;;;;4893356;29;20045;-80
2022/01/11 09:16:44;;;;;;;130.18;51.33;;;1.70;99.90;;;;;;4889769;29;20036;-79
2022/01/11 09:19:32;;;;;;;137.63;52.47;;;1.70;99.90;;;;;;4893602;29;20135;-80
2022/01/11 09:22:22;;;;;;;135.65;54.05;;;1.70;99.90;;;;;;4883218;29;20044;-81
2022/01/11 09:25:15;;;;;;;133.70;52.20;;;1.80;99.90;;;;;;4890358;29;20063;-80
2022/01/11 09:28:03;;;;;;;119.40;50.13;;;1.90;99.90;;;;;;4901718;29;20044;-82
2022/01/11 09:30:51;;;;;;;120.43;48.17;;;1.90;99.90;;;;;;4903189;29;20055;-83
2022/01/11 09:33:39;;;;;;;110.50;47.63;;;2.00;99.90;;;;;;4904316;29;20045;-82
2022/01/11 09:36:27;;;;;;;104.80;46.50;;;2.00;99.90;;;;;;4887634;29;20351;-79
2022/01/11 09:39:17;;;;;;;101.53;42.67;;;2.10;99.90;;;;;;4902188;29;20040;-81
2022/01/11 09:42:06;;;;;;;88.50;41.20;;;2.10;99.90;;;;;;4905447;29;20052;-83
2022/01/11 09:44:58;;;;;;;78.50;38.88;;;2.20;99.90;;;;;;4889802;29;20373;-80
2022/01/11 09:47:47;;;;;;;73.32;35.85;;;2.20;99.90;;;;;;4874424;29;20343;-80
2022/01/11 09:50:34;;;;;;;74.47;35.13;;;2.20;99.90;;;;;;4889235;29;20112;-81
2022/01/11 09:53:25;;;;;;;69.15;32.92;;;2.30;99.90;;;;;;4886684;29;20040;-80
2022/01/11 09:56:18;;;;;;;59.85;30.77;;;2.30;99.90;;;;;;4887626;29;20072;-79
2022/01/11 09:59:06;;;;;;;61.92;30.65;;;2.40;99.90;;;;;;4880559;29;20053;-80
2022/01/11 10:01:54;;;;;;;52.05;26.77;;;2.50;99.90;;;;;;4879026;29;20044;-81
2022/01/11 10:04:42;;;;;;;51.53;27.13;;;2.60;99.90;;;;;;4883520;29;20144;-83
2022/01/11 10:07:31;;;;;;;45.92;24.48;;;2.70;99.90;;;;;;4889396;29;20051;-83
2022/01/11 10:10:22;;;;;;;44.25;22.10;;;2.80;99.90;;;;;;4886788;29;20052;-83
2022/01/11 10:13:31;;;;;;;42.85;23.15;;;2.80;99.90;;;;;;4887485;29;20048;-81
2022/01/11 10:16:27;;;;;;;39.85;22.00;;;2.90;99.90;;;;;;4884499;29;20040;-80
2022/01/11 10:19:26;;;;;;;38.97;21.83;;;3.00;99.90;;;;;;4882392;29;20471;-80
2022/01/11 10:22:19;;;;;;;45.78;24.80;;;3.10;99.90;;;;;;4889587;29;20052;-80
2022/01/11 10:25:07;;;;;;;40.75;23.55;;;3.10;99.90;;;;;;4875986;29;20089;-80
2022/01/11 10:27:56;;;;;;;46.50;24.00;;;3.30;99.90;;;;;;4886243;29;20049;-81
2022/01/11 10:30:46;;;;;;;38.42;20.95;;;3.50;99.90;;;;;;4903438;29;20067;-82
2022/01/11 10:33:35;;;;;;;36.65;20.10;;;3.70;99.90;;;;;;4882663;29;20045;-80
2022/01/11 10:36:43;;;;;;;43.63;20.83;;;3.80;99.90;;;;;;4887813;29;20044;-80
2022/01/11 10:39:35;;;;;;;40.72;21.00;;;3.80;99.90;;;;;;4888156;29;20048;-79
2022/01/11 10:42:28;;;;;;;28.70;15.82;;;3.80;99.90;;;;;;4893712;29;20135;-81
2022/01/11 10:45:33;;;;;;;32.08;17.40;;;4.10;99.90;;;;;;4896037;29;20075;-80
2022/01/11 10:48:25;;;;;;;31.92;17.52;;;4.40;99.90;;;;;;4897244;29;20063;-82
2022/01/11 10:51:15;;;;;;;29.33;16.30;;;4.60;99.90;;;;;;4888512;29;20036;-81
2022/01/11 10:54:09;;;;;;;26.60;15.95;;;4.70;99.90;;;;;;4868969;29;20048;-82
2022/01/11 10:57:12;;;;;;;29.25;16.85;;;4.80;99.90;;;;;;4885981;29;20064;-81
2022/01/11 11:00:14;;;;;;;25.90;15.38;;;5.00;99.90;;;;;;4883670;29;20387;-81
2022/01/11 11:03:09;;;;;;;23.33;14.77;;;5.10;99.90;;;;;;4895040;29;20060;-80
2022/01/11 11:06:10;;;;;;;23.17;14.32;;;5.20;99.90;;;;;;4881324;29;20097;-82
2022/01/11 11:08:58;;;;;;;25.58;14.70;;;5.50;99.90;;;;;;4882973;29;20053;-81
2022/01/11 11:11:46;;;;;;;19.38;11.90;;;5.90;99.90;;;;;;4894996;29;20486;-81
2022/01/11 11:14:56;;;;;;;21.13;13.40;;;6.30;99.90;;;;;;4882228;29;20099;-81
2022/01/11 11:17:46;;;;;;;18.77;11.77;;;6.90;99.90;;;;;;4879416;29;20135;-83
2022/01/11 11:20:37;;;;;;;18.60;11.30;;;7.90;99.90;;;;;;4883222;29;20470;-82
2022/01/11 11:23:26;;;;;;;18.38;11.50;;;7.80;99.90;;;;;;4877361;29;20387;-83
2022/01/11 11:26:19;;;;;;;21.52;11.65;;;7.50;99.90;;;;;;4894581;29;20431;-83
2022/01/11 11:29:09;;;;;;;8.38;5.00;;;7.40;99.90;;;;;;4868769;29;20392;-83
2022/01/11 11:32:22;;;;;;;6.13;3.63;;;8.10;98.80;;;;;;4881189;29;20469;-81
2022/01/11 11:35:11;;;;;;;5.15;3.90;;;8.90;90.90;;;;;;4880342;29;20059;-83
2022/01/11 11:38:04;;;;;;;5.90;3.95;;;8.80;86.30;;;;;;4896698;28;20049;-83
2022/01/11 11:40:55;;;;;;;4.90;2.90;;;8.70;86.50;;;;;;4880838;29;20394;-83
2022/01/11 11:44:02;;;;;;;4.22;2.95;;;9.50;83.00;;;;;;4879587;29;20096;-83
2022/01/11 11:47:06;;;;;;;3.40;2.72;;;10.80;75.80;;;;;;4880118;29;20040;-82
2022/01/11 11:50:03;;;;;;;5.00;3.10;;;9.50;71.10;;;;;;4883980;29;20072;-83
2022/01/11 11:52:55;;;;;;;4.53;3.20;;;9.10;75.70;;;;;;4880216;29;20495;-82
2022/01/11 11:55:44;;;;;;;6.55;4.00;;;8.80;76.00;;;;;;4899892;29;20049;-83
2022/01/11 11:58:42;;;;;;;5.47;3.95;;;8.20;78.00;;;;;;4873714;29;20063;-82
2022/01/11 12:01:47;;;;;;;8.15;4.15;;;7.10;83.50;;;;;;4886423;29;20403;-80
2022/01/11 12:04:35;;;;;;;6.75;4.57;;;6.50;89.30;;;;;;4887068;29;20061;-81
2022/01/11 12:07:47;;;;;;;9.43;5.13;;;6.20;89.80;;;;;;4880976;29;20277;-80
2022/01/11 12:10:55;;;;;;;8.55;4.50;;;6.30;90.80;;;;;;4898990;29;20067;-80
2022/01/11 12:13:42;;;;;;;9.73;4.53;;;6.40;89.90;;;;;;4885370;29;20139;-82
2022/01/11 12:16:35;;;;;;;6.68;4.38;;;6.00;91.20;;;;;;4884668;29;20056;-81
2022/01/11 12:19:41;;;;;;;6.45;4.15;;;5.70;92.90;;;;;;4875648;29;20131;-82
2022/01/11 12:22:31;;;;;;;6.50;3.38;;;5.30;93.50;;;;;;4896271;29;20131;-80
2022/01/11 12:25:41;;;;;;;4.10;2.72;;;6.00;93.70;;;;;;4883000;29;20056;-82
2022/01/11 12:28:29;;;;;;;4.47;3.13;;;7.00;87.50;;;;;;4882149;29;20097;-80
2022/01/11 12:31:24;;;;;;;9.73;3.75;;;6.60;86.90;;;;;;4889488;29;20544;-81
2022/01/11 12:34:13;;;;;;;5.60;3.80;;;6.10;90.30;;;;;;4881037;29;20221;-82
2022/01/11 12:37:02;;;;;;;4.50;3.22;;;6.10;92.10;;;;;;4883979;29;20040;-81
2022/01/11 12:40:23;;;;;;;5.32;3.05;;;6.20;90.80;;;;;;4900056;29;20058;-81
2022/01/11 12:43:17;;;;;;;5.18;4.03;;;6.50;90.70;;;;;;4881674;29;20049;-81
2022/01/11 12:46:08;;;;;;;11.60;3.47;;;6.40;90.70;;;;;;4896460;29;20056;-80
2022/01/11 12:48:59;;;;;;;6.05;3.63;;;6.40;91.20;;;;;;4890144;29;20075;-81
2022/01/11 12:51:51;;;;;;;5.57;3.35;;;7.30;87.50;;;;;;4881734;29;20059;-83
2022/01/11 12:54:48;;;;;;;4.90;3.20;;;8.30;82.80;;;;;;4883942;29;20052;-83
2022/01/11 12:57:43;;;;;;;4.38;2.70;;;8.50;77.50;;;;;;4890374;29;20076;-82
2022/01/11 13:00:34;;;;;;;4.70;3.03;;;8.70;75.90;;;;;;4881503;29;20360;-85
2022/01/11 13:03:24;;;;;;;5.32;2.80;;;9.00;73.80;;;;;;4882455;29;20161;-85
2022/01/11 13:06:12;;;;;;;3.65;3.08;;;9.50;71.80;;;;;;4887331;29;20057;-81
2022/01/11 13:09:05;;;;;;;5.38;3.38;;;9.20;70.30;;;;;;4886540;29;20040;-84
2022/01/11 13:11:56;;;;;;;3.25;2.90;;;8.90;72.50;;;;;;4882170;29;20461;-80
2022/01/11 13:14:43;;;;;;;3.03;2.40;;;9.80;70.20;;;;;;4884810;29;20056;-81
2022/01/11 13:17:45;;;;;;;6.43;3.42;;;11.10;64.80;;;;;;4880911;29;20118;-82
2022/01/11 13:21:07;;;;;;;5.13;3.13;;;12.40;61.60;;;;;;4880997;29;20132;-83
2022/01/11 13:24:11;;;;;;;5.43;2.90;;;12.50;58.60;;;;;;4882112;29;20056;-83
2022/01/11 13:26:58;;;;;;;4.90;3.25;;;12.10;56.90;;;;;;4886994;29;20056;-82
2022/01/11 13:29:45;;;;;;;8.48;3.78;;;9.90;63.60;;;;;;4898669;29;20402;-83
2022/01/11 13:32:35;;;;;;;5.60;4.25;;;8.50;69.00;;;;;;4891199;29;20051;-84
2022/01/11 13:35:25;;;;;;;6.80;4.03;;;7.40;74.50;;;;;;4876403;29;20179;-81
2022/01/11 13:38:13;;;;;;;5.75;4.82;;;6.40;79.80;;;;;;4864785;29;20048;-82
2022/01/11 13:41:05;;;;;;;7.57;4.68;;;5.50;85.00;;;;;;4890700;29;20063;-83
2022/01/11 13:44:16;;;;;;;7.13;4.97;;;5.00;90.20;;;;;;4886762;29;20155;-83
2022/01/11 13:47:10;;;;;;;6.88;4.70;;;4.80;92.30;;;;;;4876553;29;20455;-82
2022/01/11 13:49:58;;;;;;;7.45;4.85;;;4.70;93.50;;;;;;4893506;29;20045;-82
2022/01/11 13:52:46;;;;;;;9.55;4.95;;;4.60;94.10;;;;;;4884747;29;20439;-83
2022/01/11 13:55:34;;;;;;;7.13;5.28;;;4.40;95.30;;;;;;4856499;29;20064;-82
2022/01/11 13:58:24;;;;;;;8.68;5.07;;;4.10;96.40;;;;;;4890422;29;20063;-84
2022/01/11 14:01:26;;;;;;;10.00;5.28;;;3.90;97.50;;;;;;4872744;29;20056;-84
2022/01/11 14:04:21;;;;;;;9.82;5.88;;;3.90;99.90;;;;;;4873202;29;20048;-82
2022/01/11 14:07:20;;;;;;;8.55;5.60;;;4.00;99.90;;;;;;4884100;29;20389;-83
2022/01/11 14:10:15;;;;;;;8.27;5.40;;;4.00;99.90;;;;;;4880804;29;20150;-82
2022/01/11 14:13:05;;;;;;;8.02;5.40;;;4.10;99.70;;;;;;4896950;29;20407;-83
2022/01/11 14:15:53;;;;;;;6.20;4.50;;;4.30;98.30;;;;;;4882181;29;20075;-82
2022/01/11 14:18:42;;;;;;;7.28;4.82;;;4.70;97.80;;;;;;4867300;29;20247;-82
2022/01/11 14:21:29;;;;;;;6.30;5.03;;;4.70;96.40;;;;;;4894834;29;20041;-83
2022/01/11 14:24:18;;;;;;;6.78;5.18;;;4.40;96.90;;;;;;4879379;29;20060;-82
2022/01/11 14:27:15;;;;;;;8.30;4.93;;;4.00;98.60;;;;;;4878086;29;20044;-81
2022/01/11 14:30:08;;;;;;;8.45;5.30;;;3.90;99.00;;;;;;4899282;29;20051;-82
2022/01/11 14:32:56;;;;;;;;;;;3.80;99.60;;;;;;4884420;29;20059;-81
2022/01/11 14:35:43;;;;;;;6.57;4.93;;;3.70;99.90;;;;;;4883902;29;20328;-81
2022/01/11 14:38:51;;;;;;;11.77;5.38;;;3.70;99.90;;;;;;4865438;29;20059;-80
2022/01/11 14:41:46;;;;;;;10.57;5.97;;;3.70;99.90;;;;;;4878845;29;20049;-83
2022/01/11 14:44:36;;;;;;;9.90;6.28;;;3.60;99.90;;;;;;4896622;29;20052;-80
2022/01/11 14:47:37;;;;;;;8.70;5.65;;;3.50;99.90;;;;;;4871692;29;20061;-80
2022/01/11 14:50:30;;;;;;;11.13;6.97;;;3.40;99.90;;;;;;4886302;29;20056;-82
2022/01/11 14:53:18;;;;;;;11.65;6.70;;;3.30;99.90;;;;;;4883707;29;20108;-84
2022/01/11 14:56:26;;;;;;;12.32;7.53;;;3.20;99.90;;;;;;4865756;29;20045;-83
2022/01/11 14:59:15;;;;;;;11.70;6.95;;;3.10;99.90;;;;;;4879303;29;20165;-82
2022/01/11 15:02:09;;;;;;;11.75;7.47;;;3.10;99.90;;;;;;4880682;29;20044;-83
2022/01/11 15:04:58;;;;;;;11.20;7.72;;;3.00;99.90;;;;;;4884276;29;20132;-83
2022/01/11 15:07:46;;;;;;;12.38;7.30;;;2.80;99.90;;;;;;4877938;29;20176;-81
2022/01/11 15:10:35;;;;;;;13.57;8.18;;;2.80;99.90;;;;;;4876734;29;20048;-82
2022/01/11 15:13:25;;;;;;;17.30;8.25;;;2.70;99.90;;;;;;4904181;28;20111;-81
2022/01/11 15:16:13;;;;;;;12.90;7.47;;;2.60;99.90;;;;;;4892217;29;20045;-81
2022/01/11 15:19:11;;;;;;;11.95;7.05;;;2.60;99.90;;;;;;4886010;29;20055;-80
2022/01/11 15:22:10;;;;;;;9.20;6.35;;;2.70;99.90;;;;;;4896729;29;20363;-81
2022/01/11 15:25:00;;;;;;;9.65;6.05;;;2.70;99.90;;;;;;4881735;29;20443;-82
2022/01/11 15:27:47;;;;;;;13.75;6.35;;;2.90;99.90;;;;;;4868247;29;20103;-80
2022/01/11 15:30:39;;;;;;;9.30;6.07;;;2.80;99.90;;;;;;4888128;29;20052;-79
2022/01/11 15:33:27;;;;;;;11.38;6.70;;;2.80;99.90;;;;;;4877873;29;20102;-80
2022/01/11 15:36:17;;;;;;;7.60;5.32;;;2.60;99.90;;;;;;4895780;29;20060;-82
2022/01/11 15:39:05;;;;;;;10.00;5.80;;;2.40;99.90;;;;;;4880673;29;20486;-81
2022/01/11 15:41:56;;;;;;;11.05;6.00;;;2.20;99.90;;;;;;4884018;29;20088;-82
2022/01/11 15:44:43;;;;;;;6.88;5.35;;;2.10;99.90;;;;;;4869910;29;20036;-80
2022/01/11 15:47:31;;;;;;;8.48;5.97;;;1.90;99.90;;;;;;4867113;29;20052;-79
2022/01/11 15:50:18;;;;;;;15.02;9.23;;;1.80;99.90;;;;;;4872862;29;20056;-81
2022/01/11 15:53:08;;;;;;;19.45;10.18;;;1.70;99.90;;;;;;4885887;29;20052;-80
2022/01/11 15:55:56;;;;;;;10.63;7.35;;;1.70;99.90;;;;;;4871887;29;20045;-80
2022/01/11 15:58:44;;;;;;;10.45;5.97;;;1.60;99.90;;;;;;4881285;29;20045;-78
2022/01/11 16:01:31;;;;;;;10.02;6.55;;;1.60;99.90;;;;;;4883909;29;20394;-80
2022/01/11 16:04:21;;;;;;;9.65;6.55;;;1.60;99.90;;;;;;4895916;29;20048;-80
2022/01/11 16:07:09;;;;;;;12.13;6.80;;;1.60;99.90;;;;;;4861296;29;20060;-79
2022/01/11 16:09:58;;;;;;;10.68;7.13;;;1.60;99.90;;;;;;4882708;29;20049;-79
2022/01/11 16:12:46;;;;;;;8.43;5.82;;;1.60;99.90;;;;;;4883570;29;20044;-79
2022/01/11 16:15:34;;;;;;;10.65;5.22;;;1.60;99.90;;;;;;4878968;29;20068;-79
2022/01/11 16:18:22;;;;;;;8.00;5.38;;;1.60;99.90;;;;;;4901110;29;20092;-80
2022/01/11 16:21:11;;;;;;;9.98;5.65;;;1.60;99.90;;;;;;4854433;29;20806;-80
2022/01/11 16:23:58;;;;;;;9.95;5.10;;;1.70;99.90;;;;;;4890030;29;20060;-80
2022/01/11 16:26:46;;;;;;;11.82;6.13;;;1.70;99.90;;;;;;4873148;29;20048;-80
2022/01/11 16:29:37;;;;;;;9.35;4.95;;;1.70;99.90;;;;;;4885245;29;20043;-80
2022/01/11 16:32:26;;;;;;;8.85;5.90;;;1.70;99.90;;;;;;4890180;29;20055;-79
2022/01/11 16:35:16;;;;;;;9.20;5.53;;;1.60;99.90;;;;;;4883525;29;20120;-79
2022/01/11 16:38:09;;;;;;;10.77;5.30;;;1.60;99.90;;;;;;4884232;29;20445;-79
2022/01/11 16:43:47;;;;;;;7.75;5.35;;;1.60;99.90;;;;;;4907855;29;20169;-79
2022/01/11 16:46:39;;;;;;;9.07;5.47;;;1.60;99.90;;;;;;4877450;29;20390;-79
2022/01/11 16:49:27;;;;;;;10.45;5.80;;;1.50;99.90;;;;;;4888059;29;20454;-80
2022/01/11 16:52:14;;;;;;;12.25;6.47;;;1.50;99.90;;;;;;4901358;29;20518;-79
2022/01/11 16:55:03;;;;;;;10.00;6.53;;;1.50;99.90;;;;;;4868890;29;20447;-79
2022/01/11 16:57:51;;;;;;;9.50;6.05;;;1.50;99.90;;;;;;4894643;29;20053;-80
2022/01/11 17:00:42;;;;;;;9.88;6.78;;;1.50;99.90;;;;;;4892816;29;20177;-80
2022/01/11 17:03:29;;;;;;;12.63;6.72;;;1.50;99.90;;;;;;4899732;28;20108;-80